createdAt,value
2024-03-05T00:00:41.039Z,98083.72
2024-03-05T00:03:08.147Z,98084.53
2024-03-05T00:05:35.190Z,98081.97
2024-03-05T00:08:04.097Z,98077.63
2024-03-05T00:10:33.549Z,98083.53
2024-03-05T00:13:00.823Z,98075.69
2024-03-05T00:15:27.999Z,98075.31
2024-03-05T00:17:55.312Z,98068.47
2024-03-05T00:20:22.409Z,98072.22
2024-03-05T00:22:50.024Z,98063.56
2024-03-05T00:25:17.474Z,98065.91
2024-03-05T00:27:45.960Z,98069.09
2024-03-05T00:30:15.299Z,98066.38
2024-03-05T00:32:43.010Z,98061.84
2024-03-05T00:35:11.015Z,98062.66
2024-03-05T00:37:39.001Z,98059.28
2024-03-05T00:40:09.614Z,98052.41
2024-03-05T00:42:37.292Z,98059.53
2024-03-05T00:45:08.347Z,98048.69
2024-03-05T00:47:36.467Z,98055.16
2024-03-05T00:50:08.148Z,98047.88
2024-03-05T00:52:35.337Z,98054.91
2024-03-05T00:55:02.628Z,98050.44
2024-03-05T00:57:30.408Z,98048.56
2024-03-05T00:59:57.870Z,98042.88
2024-03-05T01:02:26.535Z,98048.34
2024-03-05T01:04:56.315Z,98040.47
2024-03-05T01:07:23.612Z,98039.88
2024-03-05T01:09:50.930Z,98036.34
2024-03-05T01:12:18.061Z,98035.94
2024-03-05T01:14:45.904Z,98038.28
2024-03-05T01:17:13.995Z,98034.75
2024-03-05T01:19:42.587Z,98037.88
2024-03-05T01:22:09.580Z,98034.91
2024-03-05T01:24:36.789Z,98031.13
2024-03-05T01:27:06.167Z,98035.09
2024-03-05T01:29:33.475Z,98030.19
2024-03-05T01:32:02.988Z,98031.97
2024-03-05T01:34:30.527Z,98026.06
2024-03-05T01:36:59.256Z,98015.81
2024-03-05T01:39:28.139Z,98020.34
2024-03-05T01:41:55.327Z,98026.13
2024-03-05T01:44:23.295Z,98024.53
2024-03-05T01:46:54.761Z,98016.06
2024-03-05T01:49:23.333Z,98019.19
2024-03-05T01:51:50.825Z,98019.78
2024-03-05T01:54:19.609Z,98016.22
2024-03-05T01:56:49.899Z,98016.81
2024-03-05T01:59:18.588Z,98020.94
2024-03-05T02:01:46.625Z,98018.38
2024-03-05T02:04:13.977Z,98024.91
2024-03-05T02:06:43.317Z,98009.59
2024-03-05T02:09:12.567Z,98006.44
2024-03-05T02:11:52.546Z,98010.81
2024-03-05T02:14:24.432Z,98013.59
2024-03-05T02:16:52.086Z,98015.94
2024-03-05T02:19:19.394Z,98006.09
2024-03-05T02:21:48.270Z,98013.63
2024-03-05T02:24:15.779Z,98022.28
2024-03-05T02:26:43.105Z,98013.44
2024-03-05T02:29:10.503Z,98012.66
2024-03-05T02:31:37.753Z,98023.28
2024-03-05T02:34:06.258Z,98022.66
2024-03-05T02:36:33.408Z,98026.38
2024-03-05T02:39:01.893Z,98031.09
2024-03-05T02:41:28.959Z,98023.63
2024-03-05T02:43:57.582Z,98030.13
2024-03-05T02:46:25.973Z,98021.09
2024-03-05T02:48:53.074Z,98017.75
2024-03-05T02:51:20.109Z,98028.44
2024-03-05T02:53:47.565Z,98022.72
2024-03-05T02:56:16.282Z,98016.59
2024-03-05T02:58:43.661Z,98008.16
2024-03-05T03:01:12.191Z,98020.75
2024-03-05T03:03:39.621Z,98021.38
2024-03-05T03:06:06.890Z,98012.34
2024-03-05T03:08:34.403Z,98009.41
2024-03-05T03:11:01.782Z,98010.19
2024-03-05T03:13:30.878Z,98009.97
2024-03-05T03:15:57.839Z,98014.13
2024-03-05T03:18:24.838Z,98008.22
2024-03-05T03:20:52.140Z,97996.81
2024-03-05T03:23:19.650Z,98003.09
2024-03-05T03:25:46.878Z,98005.50
2024-03-05T03:28:14.201Z,98018.69
2024-03-05T03:30:42.759Z,98014.97
2024-03-05T03:33:09.946Z,98004.78
2024-03-05T03:35:37.073Z,98011.09
2024-03-05T03:38:05.093Z,98015.59
2024-03-05T03:40:35.029Z,98011.84
2024-03-05T03:43:02.517Z,98009.28
2024-03-05T03:45:29.565Z,98013.41
2024-03-05T03:47:59.154Z,98019.31
2024-03-05T03:50:26.380Z,98014.22
2024-03-05T03:52:53.418Z,98012.66
2024-03-05T03:55:20.600Z,98011.06
2024-03-05T03:57:48.632Z,98009.50
2024-03-05T04:00:19.931Z,98000.84
2024-03-05T04:02:50.401Z,98013.03
2024-03-05T04:05:18.822Z,98001.22
2024-03-05T04:07:45.845Z,98006.34
2024-03-05T04:10:13.276Z,98003.22
2024-03-05T04:12:40.514Z,98004.63
2024-03-05T04:15:13.538Z,98003.66
2024-03-05T04:17:41.198Z,97996.53
2024-03-05T04:20:10.663Z,98003.63
2024-03-05T04:22:40.769Z,98000.72
2024-03-05T04:25:08.912Z,97993.06
2024-03-05T04:27:42.628Z,98001.69
2024-03-05T04:30:13.585Z,97998.94
2024-03-05T04:35:17.270Z,97999.13
2024-03-05T04:37:46.707Z,97993.06
2024-03-05T04:40:14.344Z,97991.69
2024-03-05T04:42:41.296Z,97988.16
2024-03-05T04:45:09.312Z,97992.28
2024-03-05T04:47:37.649Z,97991.28
2024-03-05T04:50:06.372Z,97993.09
2024-03-05T04:52:34.741Z,97992.28
2024-03-05T04:55:04.053Z,98001.31
2024-03-05T04:57:31.086Z,97993.66
2024-03-05T04:59:59.248Z,97994.84
2024-03-05T05:02:26.278Z,98002.09
2024-03-05T05:04:53.295Z,98012.72
2024-03-05T05:07:24.544Z,98007.63
2024-03-05T05:09:51.752Z,98008.38
2024-03-05T05:12:20.109Z,98011.16
2024-03-05T05:14:47.169Z,98014.69
2024-03-05T05:17:15.000Z,98012.28
2024-03-05T05:19:42.337Z,98018.97
2024-03-05T05:22:09.347Z,98027.63
2024-03-05T05:24:37.552Z,98021.53
2024-03-05T05:27:07.831Z,98030.94
2024-03-05T05:29:40.358Z,98040.19
2024-03-05T05:32:09.634Z,98039.75
2024-03-05T05:34:37.222Z,98029.72
2024-03-05T05:37:06.032Z,98043.31
2024-03-05T05:39:33.840Z,98046.06
2024-03-05T05:42:01.262Z,98044.81
2024-03-05T05:44:28.261Z,98048.94
2024-03-05T05:46:57.533Z,98053.41
2024-03-05T05:49:24.679Z,98042.53
2024-03-05T05:51:54.838Z,98055.47
2024-03-05T05:54:23.409Z,98045.38
2024-03-05T05:56:50.552Z,98053.75
2024-03-05T05:59:18.847Z,98052.69
2024-03-05T06:01:46.465Z,98047.06
2024-03-05T06:04:16.785Z,98047.34
2024-03-05T06:06:44.486Z,98044.06
2024-03-05T06:09:11.462Z,98051.03
2024-03-05T06:11:39.276Z,98046.94
2024-03-05T06:14:07.765Z,98057.97
2024-03-05T06:16:35.598Z,98058.41
2024-03-05T06:19:05.444Z,98056.63
2024-03-05T06:21:33.965Z,98051.47
2024-03-05T06:24:01.142Z,98054.00
2024-03-05T06:26:29.027Z,98061.97
2024-03-05T06:28:56.085Z,98072.84
2024-03-05T06:31:25.128Z,98067.94
2024-03-05T06:33:52.428Z,98060.81
2024-03-05T06:36:20.570Z,98063.84
2024-03-05T06:38:48.944Z,98065.69
2024-03-05T06:41:16.479Z,98058.13
2024-03-05T06:43:44.055Z,98064.38
2024-03-05T06:46:11.246Z,98057.66
2024-03-05T06:48:43.279Z,98058.34
2024-03-05T06:51:27.775Z,98058.13
2024-03-05T06:54:14.732Z,98057.69
2024-03-05T06:56:42.355Z,98052.44
2024-03-05T06:59:11.627Z,98049.41
2024-03-05T07:01:38.982Z,98054.09
2024-03-05T07:04:07.896Z,98059.63
2024-03-05T07:06:35.897Z,98057.66
2024-03-05T07:09:04.472Z,98045.34
2024-03-05T07:11:31.598Z,98048.47
2024-03-05T07:13:59.380Z,98049.59
2024-03-05T07:16:27.030Z,98054.09
2024-03-05T07:18:54.854Z,98052.09
2024-03-05T07:21:24.236Z,98064.06
2024-03-05T07:23:52.837Z,98055.00
2024-03-05T07:26:22.053Z,98059.19
2024-03-05T07:28:49.405Z,98060.06
2024-03-05T07:31:18.508Z,98067.09
2024-03-05T07:33:49.044Z,98061.31
2024-03-05T07:36:19.150Z,98061.78
2024-03-05T07:38:46.266Z,98061.47
2024-03-05T07:41:21.587Z,98065.31
2024-03-05T07:43:54.993Z,98075.22
2024-03-05T07:46:22.076Z,98073.56
2024-03-05T07:48:49.487Z,98080.25
2024-03-05T07:51:23.909Z,98084.91
2024-03-05T07:53:52.903Z,98080.53
2024-03-05T07:56:20.089Z,98086.38
2024-03-05T07:58:47.145Z,98089.41
2024-03-05T08:01:15.713Z,98090.81
2024-03-05T08:03:42.865Z,98091.56
2024-03-05T08:06:09.980Z,98090.97
2024-03-05T08:08:37.095Z,98086.31
2024-03-05T08:11:04.404Z,98092.13
2024-03-05T08:13:34.875Z,98087.25
2024-03-05T08:16:05.390Z,98090.16
2024-03-05T08:18:33.982Z,98093.03
2024-03-05T08:21:03.284Z,98089.03
2024-03-05T08:23:30.338Z,98081.56
2024-03-05T08:25:57.532Z,98088.09
2024-03-05T08:28:25.571Z,98082.72
2024-03-05T08:30:55.034Z,98088.31
2024-03-05T08:33:25.026Z,98103.13
2024-03-05T08:35:53.884Z,98096.94
2024-03-05T08:38:21.018Z,98100.75
2024-03-05T08:40:50.454Z,98098.72
2024-03-05T08:43:17.648Z,98096.28
2024-03-05T08:45:44.732Z,98099.53
2024-03-05T08:48:11.968Z,98108.47
2024-03-05T08:50:40.725Z,98098.19
2024-03-05T08:53:11.090Z,98091.47
2024-03-05T08:55:38.360Z,98097.31
2024-03-05T08:58:05.605Z,98094.03
2024-03-05T09:00:42.720Z,98085.66
2024-03-05T09:03:13.096Z,98095.19
2024-03-05T09:05:42.300Z,98094.38
2024-03-05T09:08:12.738Z,98099.88
2024-03-05T09:10:40.185Z,98089.34
2024-03-05T09:13:07.196Z,98091.69
2024-03-05T09:15:34.235Z,98099.41
2024-03-05T09:18:02.164Z,98099.41
2024-03-05T09:20:29.221Z,98101.75
2024-03-05T09:22:56.269Z,98091.38
2024-03-05T09:25:24.878Z,98094.94
2024-03-05T09:27:51.828Z,98097.72
2024-03-05T09:30:20.684Z,98097.28
2024-03-05T09:32:48.299Z,98106.91
2024-03-05T09:35:17.021Z,98103.88
2024-03-05T09:37:48.127Z,98099.84
2024-03-05T09:40:19.666Z,98104.00
2024-03-05T09:42:48.764Z,98099.63
2024-03-05T09:45:17.728Z,98090.78
2024-03-05T09:47:47.403Z,98097.41
2024-03-05T09:50:15.204Z,98108.13
2024-03-05T09:52:44.941Z,98106.59
2024-03-05T09:55:13.460Z,98103.00
2024-03-05T09:57:46.902Z,98105.22
2024-03-05T10:00:19.989Z,98094.69
2024-03-05T10:02:48.083Z,98093.22
2024-03-05T10:05:19.901Z,98091.72
2024-03-05T10:07:49.541Z,98082.88
2024-03-05T10:10:20.638Z,98080.13
2024-03-05T10:12:47.901Z,98078.00
2024-03-05T10:15:19.774Z,98067.41
2024-03-05T10:17:50.868Z,98070.59
2024-03-05T10:20:28.825Z,98073.28
2024-03-05T10:22:59.268Z,98067.44
2024-03-05T10:25:27.890Z,98059.25
2024-03-05T10:27:55.895Z,98067.81
2024-03-05T10:30:26.409Z,98068.16
2024-03-05T10:32:54.914Z,98062.66
2024-03-05T10:35:22.680Z,98066.88
2024-03-05T10:38:00.874Z,98059.50
2024-03-05T10:40:33.662Z,98062.38
2024-03-05T10:43:02.339Z,98057.22
2024-03-05T10:45:33.303Z,98063.75
2024-03-05T10:48:01.526Z,98072.59
2024-03-05T10:50:29.424Z,98056.56
2024-03-05T10:52:57.701Z,98051.44
2024-03-05T10:55:26.010Z,98048.25
2024-03-05T10:58:13.877Z,98040.19
2024-03-05T11:00:45.230Z,98031.28
2024-03-05T11:03:13.874Z,98031.13
2024-03-05T11:05:49.275Z,98033.00
2024-03-05T11:08:18.171Z,98033.72
2024-03-05T11:10:51.283Z,98025.88
2024-03-05T11:13:19.751Z,98027.56
2024-03-05T11:15:49.798Z,98032.59
2024-03-05T11:18:28.630Z,98026.19
2024-03-05T11:20:55.998Z,98019.16
2024-03-05T11:23:30.746Z,98024.53
2024-03-05T11:26:05.328Z,98010.56
2024-03-05T11:28:32.868Z,98016.56
2024-03-05T11:31:12.924Z,98017.88
2024-03-05T11:33:42.129Z,98005.69
2024-03-05T11:36:21.896Z,97991.66
2024-03-05T11:39:03.930Z,97999.66
2024-03-05T11:41:32.348Z,98002.81
2024-03-05T11:43:59.623Z,98003.53
2024-03-05T11:46:53.071Z,97998.09
2024-03-05T11:49:21.431Z,97994.69
2024-03-05T11:51:49.059Z,97995.81
2024-03-05T11:54:21.838Z,97989.78
2024-03-05T11:56:58.041Z,97991.41
2024-03-05T11:59:33.927Z,97986.53
2024-03-05T12:02:02.537Z,97983.66
2024-03-05T12:04:29.682Z,97979.25
2024-03-05T12:07:03.494Z,97973.50
2024-03-05T12:09:30.580Z,97970.94
2024-03-05T12:12:03.684Z,97983.94
2024-03-05T12:14:32.113Z,97967.16
2024-03-05T12:17:01.584Z,97986.06
2024-03-05T12:19:30.101Z,97969.34
2024-03-05T12:21:57.354Z,97982.59
2024-03-05T12:24:24.956Z,97973.28
2024-03-05T12:26:54.482Z,97972.25
2024-03-05T12:29:34.940Z,97972.22
2024-03-05T12:32:06.409Z,97970.94
2024-03-05T12:34:35.435Z,97962.91
2024-03-05T12:37:02.838Z,97969.16
2024-03-05T12:39:29.802Z,97968.13
2024-03-05T12:42:01.591Z,97963.69
2024-03-05T12:44:31.839Z,97968.63
2024-03-05T12:47:13.304Z,97970.91
2024-03-05T12:49:46.304Z,97969.13
2024-03-05T12:52:18.429Z,97968.31
2024-03-05T12:54:46.444Z,97971.44
2024-03-05T12:57:24.287Z,97967.00
2024-03-05T12:59:51.298Z,97963.06
2024-03-05T13:02:18.754Z,97965.72
2024-03-05T13:04:47.682Z,97961.56
2024-03-05T13:07:15.477Z,97969.56
2024-03-05T13:09:42.601Z,97964.94
2024-03-05T13:12:09.891Z,97961.06
2024-03-05T13:14:37.394Z,97969.13
2024-03-05T13:17:11.251Z,97968.13
2024-03-05T13:19:38.563Z,97959.53
2024-03-05T13:22:07.238Z,97964.69
2024-03-05T13:24:35.396Z,97958.47
2024-03-05T13:27:04.144Z,97962.88
2024-03-05T13:29:31.242Z,97959.72
2024-03-05T13:32:00.452Z,97951.69
2024-03-05T13:34:28.675Z,97955.09
2024-03-05T13:36:55.873Z,97954.59
2024-03-05T13:39:24.702Z,97956.38
2024-03-05T13:41:54.824Z,97955.88
2024-03-05T13:44:24.201Z,97955.34
2024-03-05T13:46:52.763Z,97959.81
2024-03-05T13:49:25.248Z,97956.69
2024-03-05T13:51:52.752Z,97954.63
2024-03-05T13:54:20.346Z,97956.69
2024-03-05T13:56:50.188Z,97950.75
2024-03-05T13:59:17.109Z,97946.84
2024-03-05T14:01:44.118Z,97952.00
2024-03-05T14:04:11.598Z,97954.59
2024-03-05T14:06:42.373Z,97965.97
2024-03-05T14:09:12.446Z,97964.16
2024-03-05T14:11:42.285Z,97971.91
2024-03-05T14:14:17.898Z,97962.31
2024-03-05T14:16:44.955Z,97972.16
2024-03-05T14:19:12.000Z,97970.56
2024-03-05T14:21:38.961Z,97988.13
2024-03-05T14:24:09.256Z,97972.28
2024-03-05T14:26:36.230Z,97985.69
2024-03-05T14:29:05.200Z,97980.22
2024-03-05T14:31:34.645Z,97984.88
2024-03-05T14:34:01.957Z,97990.03
2024-03-05T14:36:29.063Z,97991.56
2024-03-05T14:38:56.049Z,97992.31
2024-03-05T14:41:23.834Z,97998.72
2024-03-05T14:43:51.611Z,98000.31
2024-03-05T14:46:18.881Z,98000.31
2024-03-05T14:48:47.667Z,98013.28
2024-03-05T14:51:14.730Z,97996.16
2024-03-05T14:53:41.957Z,98007.53
2024-03-05T14:56:09.107Z,98009.00
2024-03-05T14:58:36.669Z,98011.56
2024-03-05T15:01:04.009Z,98016.69
2024-03-05T15:03:33.254Z,98013.25
2024-03-05T15:06:03.380Z,98011.94
2024-03-05T15:08:30.617Z,98019.91
2024-03-05T15:10:57.965Z,98021.13
2024-03-05T15:13:25.146Z,98030.16
2024-03-05T15:15:52.453Z,98033.59
2024-03-05T15:18:21.346Z,98036.06
2024-03-05T15:20:48.493Z,98042.94
2024-03-05T15:23:20.379Z,98047.38
2024-03-05T15:25:48.828Z,98044.72
2024-03-05T15:28:15.845Z,98049.25
2024-03-05T15:30:42.793Z,98055.41
2024-03-05T15:33:11.136Z,98053.22
2024-03-05T15:35:38.144Z,98058.91
2024-03-05T15:38:09.022Z,98069.63
2024-03-05T15:40:39.042Z,98077.53
2024-03-05T15:43:08.282Z,98077.16
2024-03-05T15:45:38.384Z,98082.25
2024-03-05T15:48:09.237Z,98075.72
2024-03-05T15:50:37.384Z,98085.47
2024-03-05T15:53:05.068Z,98088.66
2024-03-05T15:55:33.405Z,98084.22
2024-03-05T15:58:02.035Z,98094.28
2024-03-05T16:00:30.537Z,98097.81
2024-03-05T16:03:01.131Z,98098.44
2024-03-05T16:05:34.966Z,98112.38
2024-03-05T16:08:08.505Z,98112.38
2024-03-05T16:10:44.833Z,98118.28
2024-03-05T16:13:17.696Z,98124.69
2024-03-05T16:15:47.580Z,98125.94
2024-03-05T16:18:15.340Z,98134.72
2024-03-05T16:20:42.413Z,98125.31
2024-03-05T16:23:10.620Z,98136.03
2024-03-05T16:25:42.214Z,98141.09
2024-03-05T16:28:15.358Z,98142.00
2024-03-05T16:30:43.995Z,98143.47
2024-03-05T16:33:14.822Z,98139.47
2024-03-05T16:35:42.149Z,98144.53
2024-03-05T16:38:10.454Z,98156.22
2024-03-05T16:40:39.494Z,98151.00
2024-03-05T16:43:08.083Z,98158.06
2024-03-05T16:45:36.593Z,98150.50
2024-03-05T16:48:08.593Z,98161.81
2024-03-05T16:50:35.741Z,98164.28
2024-03-05T16:53:02.930Z,98176.72
2024-03-05T16:55:30.376Z,98180.09
2024-03-05T16:58:00.250Z,98175.81
2024-03-05T17:00:57.656Z,98189.13
2024-03-05T17:03:30.010Z,98193.84
2024-03-05T17:05:58.386Z,98182.75
2024-03-05T17:08:26.628Z,98187.22
2024-03-05T17:10:55.265Z,98192.81
2024-03-05T17:13:24.431Z,98197.53
2024-03-05T17:16:00.440Z,98197.00
2024-03-05T17:18:31.839Z,98199.00
2024-03-05T17:20:59.649Z,98202.69
2024-03-05T17:23:28.005Z,98211.97
2024-03-05T17:25:57.245Z,98210.63
2024-03-05T17:28:27.087Z,98210.97
2024-03-05T17:30:54.670Z,98223.94
2024-03-05T17:33:22.414Z,98231.13
2024-03-05T17:35:52.823Z,98231.34
2024-03-05T17:38:20.274Z,98234.25
2024-03-05T17:40:49.411Z,98237.38
2024-03-05T17:43:16.385Z,98235.81
2024-03-05T17:45:47.413Z,98240.06
2024-03-05T17:48:14.591Z,98245.56
2024-03-05T17:50:42.502Z,98247.56
2024-03-05T17:53:11.187Z,98257.31
2024-03-05T17:55:39.583Z,98264.56
2024-03-05T17:58:06.616Z,98272.41
2024-03-05T18:00:45.931Z,98274.06
2024-03-05T18:03:15.257Z,98280.31
2024-03-05T18:05:46.512Z,98285.25
2024-03-05T18:08:16.788Z,98287.47
2024-03-05T18:10:44.254Z,98285.69
2024-03-05T18:13:16.029Z,98283.19
2024-03-05T18:15:46.196Z,98293.94
2024-03-05T18:18:15.481Z,98294.03
2024-03-05T18:20:45.036Z,98299.59
2024-03-05T18:23:13.064Z,98299.59
2024-03-05T18:25:45.011Z,98300.84
2024-03-05T18:28:12.168Z,98303.06
2024-03-05T18:30:40.107Z,98311.91
2024-03-05T18:33:09.752Z,98306.78
2024-03-05T18:35:37.879Z,98323.19
2024-03-05T18:40:41.601Z,98320.94
2024-03-05T18:43:11.326Z,98330.09
2024-03-05T18:45:38.735Z,98335.53
2024-03-05T18:48:10.164Z,98329.69
2024-03-05T18:50:38.798Z,98339.97
2024-03-05T18:53:07.658Z,98332.25
2024-03-05T18:55:37.649Z,98335.91
2024-03-05T18:58:09.106Z,98347.03
2024-03-05T19:00:38.154Z,98342.75
2024-03-05T19:03:06.399Z,98349.31
2024-03-05T19:05:34.909Z,98351.88
2024-03-05T19:08:02.707Z,98355.03
2024-03-05T19:10:31.517Z,98359.53
2024-03-05T19:12:59.689Z,98366.38
2024-03-05T19:15:29.766Z,98363.16
2024-03-05T19:17:58.542Z,98365.09
2024-03-05T19:20:26.784Z,98359.59
2024-03-05T19:22:54.257Z,98361.72
2024-03-05T19:25:23.356Z,98364.09
2024-03-05T19:27:50.540Z,98366.53
2024-03-05T19:30:18.542Z,98375.09
2024-03-05T19:32:48.010Z,98371.94
2024-03-05T19:35:17.728Z,98373.38
2024-03-05T19:37:46.825Z,98375.41
2024-03-05T19:40:18.963Z,98376.16
2024-03-05T19:42:47.303Z,98383.09
2024-03-05T19:45:14.903Z,98381.09
2024-03-05T19:47:42.755Z,98374.19
2024-03-05T19:50:14.913Z,98382.94
2024-03-05T19:52:42.793Z,98389.09
2024-03-05T19:55:10.698Z,98392.25
2024-03-05T19:57:38.308Z,98390.22
2024-03-05T20:00:13.227Z,98386.66
2024-03-05T20:02:40.619Z,98389.81
2024-03-05T20:05:08.552Z,98387.44
2024-03-05T20:07:37.114Z,98391.78
2024-03-05T20:10:04.845Z,98390.03
2024-03-05T20:12:32.570Z,98389.47
2024-03-05T20:15:00.087Z,98385.50
2024-03-05T20:17:27.844Z,98385.50
2024-03-05T20:19:55.165Z,98393.22
2024-03-05T20:22:25.855Z,98397.81
2024-03-05T20:24:59.874Z,98401.22
2024-03-05T20:27:31.903Z,98401.63
2024-03-05T20:30:00.959Z,98400.06
2024-03-05T20:32:31.634Z,98406.97
2024-03-05T20:34:58.886Z,98403.59
2024-03-05T20:37:26.040Z,98404.59
2024-03-05T20:39:57.302Z,98406.16
2024-03-05T20:42:24.346Z,98412.94
2024-03-05T20:44:51.402Z,98407.78
2024-03-05T20:47:18.527Z,98404.38
2024-03-05T20:49:46.704Z,98408.72
2024-03-05T20:52:13.910Z,98407.38
2024-03-05T20:54:40.893Z,98412.94
2024-03-05T20:57:09.640Z,98404.47
2024-03-05T20:59:36.564Z,98413.72
2024-03-05T21:02:10.042Z,98413.53
2024-03-05T21:04:38.493Z,98413.53
2024-03-05T21:07:06.242Z,98414.16
2024-03-05T21:09:34.307Z,98408.72
2024-03-05T21:12:01.591Z,98417.47
2024-03-05T21:14:30.058Z,98412.84
2024-03-05T21:16:57.088Z,98419.84
2024-03-05T21:19:27.735Z,98411.41
2024-03-05T21:21:54.803Z,98422.06
2024-03-05T21:24:24.442Z,98418.09
2024-03-05T21:29:22.646Z,98414.38
2024-03-05T21:31:52.172Z,98420.50
2024-03-05T21:34:19.847Z,98421.66
2024-03-05T21:36:46.805Z,98419.22
2024-03-05T21:39:15.404Z,98424.75
2024-03-05T21:41:43.351Z,98427.88
2024-03-05T21:44:10.435Z,98421.78
2024-03-05T21:46:38.297Z,98423.13
2024-03-05T21:49:06.994Z,98427.06
2024-03-05T21:51:34.185Z,98428.06
2024-03-05T21:54:01.213Z,98418.78
2024-03-05T21:56:28.396Z,98412.84
2024-03-05T21:58:55.522Z,98417.19
2024-03-05T22:01:23.185Z,98417.63
2024-03-05T22:03:50.195Z,98429.69
2024-03-05T22:06:24.253Z,98421.78
2024-03-05T22:08:52.122Z,98425.09
2024-03-05T22:11:19.278Z,98419.41
2024-03-05T22:13:46.561Z,98430.44
2024-03-05T22:16:13.547Z,98433.03
2024-03-05T22:18:40.669Z,98434.03
2024-03-05T22:21:07.860Z,98431.88
2024-03-05T22:23:36.548Z,98438.81
2024-03-05T22:26:03.817Z,98439.00
2024-03-05T22:28:31.430Z,98444.16
2024-03-05T22:30:59.400Z,98449.28
2024-03-05T22:33:26.627Z,98448.47
2024-03-05T22:35:53.613Z,98451.84
2024-03-05T22:38:21.780Z,98452.81
2024-03-05T22:40:50.208Z,98461.94
2024-03-05T22:43:17.613Z,98459.38
2024-03-05T22:45:44.698Z,98463.94
2024-03-05T22:48:12.339Z,98465.56
2024-03-05T22:50:39.483Z,98468.13
2024-03-05T22:53:06.568Z,98469.31
2024-03-05T22:55:33.621Z,98469.31
2024-03-05T22:58:04.294Z,98486.91
2024-03-05T23:00:40.328Z,98476.25
2024-03-05T23:03:07.644Z,98479.81
2024-03-05T23:05:34.688Z,98489.69
2024-03-05T23:08:01.907Z,98485.75
2024-03-05T23:10:29.582Z,98493.47
2024-03-05T23:13:00.384Z,98490.69
2024-03-05T23:15:29.053Z,98491.50
2024-03-05T23:17:56.261Z,98494.63
2024-03-05T23:20:23.515Z,98494.63
2024-03-05T23:22:50.702Z,98502.31
2024-03-05T23:25:18.476Z,98496.81
2024-03-05T23:27:49.156Z,98502.97
2024-03-05T23:30:20.208Z,98496.44
2024-03-05T23:32:53.914Z,98501.78
2024-03-05T23:35:21.676Z,98501.41
2024-03-05T23:37:48.748Z,98505.19
2024-03-05T23:40:15.813Z,98499.84
2024-03-05T23:42:42.804Z,98497.47
2024-03-05T23:45:10.779Z,98505.94
2024-03-05T23:47:38.145Z,98501.00
2024-03-05T23:50:10.368Z,98496.09
2024-03-05T23:52:37.968Z,98494.31
2024-03-05T23:55:07.186Z,98498.66
2024-03-05T23:57:34.479Z,98501.84
